createdAt,value
2022-10-13T00:00:48.966Z,101853.31
2022-10-13T00:03:16.490Z,101858.75
2022-10-13T00:05:45.359Z,101861.72
2022-10-13T00:08:12.683Z,101852.75
2022-10-13T00:10:40.843Z,101860.09
2022-10-13T00:13:09.088Z,101860.91
2022-10-13T00:15:41.444Z,101853.00
2022-10-13T00:18:08.512Z,101855.47
2022-10-13T00:20:36.296Z,101856.56
2022-10-13T00:23:02.813Z,101862.00
2022-10-13T00:25:29.269Z,101848.66
2022-10-13T00:27:56.097Z,101847.56
2022-10-13T00:30:22.735Z,101851.38
2022-10-13T00:32:49.171Z,101854.91
2022-10-13T00:35:15.747Z,101855.16
2022-10-13T00:37:42.224Z,101853.28
2022-10-13T00:40:09.098Z,101847.00
2022-10-13T00:42:35.643Z,101848.09
2022-10-13T00:45:02.274Z,101850.00
2022-10-13T00:47:36.359Z,101858.16
2022-10-13T00:50:04.282Z,101858.97
2022-10-13T00:52:32.100Z,101863.63
2022-10-13T00:55:00.657Z,101854.63
2022-10-13T00:57:27.175Z,101841.00
2022-10-13T00:59:53.753Z,101834.72
2022-10-13T01:02:20.870Z,101827.63
2022-10-13T01:04:48.309Z,101813.19
2022-10-13T01:07:17.271Z,101819.44
2022-10-13T01:09:43.908Z,101837.69
2022-10-13T01:12:16.623Z,101857.59
2022-10-13T01:14:54.405Z,101846.97
2022-10-13T01:17:25.507Z,101840.41
2022-10-13T01:20:00.795Z,101836.88
2022-10-13T01:22:35.479Z,101836.06
2022-10-13T01:25:34.026Z,101838.78
2022-10-13T01:28:18.858Z,101848.59
2022-10-13T01:30:56.985Z,101832.53
2022-10-13T01:33:45.553Z,101842.84
2022-10-13T01:36:14.595Z,101839.06
2022-10-13T01:38:53.289Z,101831.13
2022-10-13T01:41:25.103Z,101826.25
2022-10-13T01:44:16.180Z,101809.09
2022-10-13T01:46:43.920Z,101820.00
2022-10-13T01:49:13.957Z,101812.88
2022-10-13T01:51:41.929Z,101801.16
2022-10-13T01:54:08.603Z,101793.00
2022-10-13T01:56:35.066Z,101792.19
2022-10-13T01:59:08.690Z,101797.38
2022-10-13T02:01:41.313Z,101794.66
2022-10-13T02:04:23.189Z,101801.16
2022-10-13T02:07:19.885Z,101797.63
2022-10-13T02:09:56.383Z,101791.34
2022-10-13T02:12:33.857Z,101789.72
2022-10-13T02:15:01.244Z,101779.66
2022-10-13T02:17:29.199Z,101775.28
2022-10-13T02:19:56.536Z,101774.44
2022-10-13T02:22:29.702Z,101780.72
2022-10-13T02:24:56.273Z,101782.63
2022-10-13T02:27:23.566Z,101784.53
2022-10-13T02:29:56.457Z,101781.78
2022-10-13T02:32:23.881Z,101775.53
2022-10-13T02:34:50.837Z,101769.25
2022-10-13T02:37:17.624Z,101767.34
2022-10-13T02:39:44.174Z,101763.81
2022-10-13T02:42:10.657Z,101773.91
2022-10-13T02:44:37.145Z,101766.81
2022-10-13T02:47:03.701Z,101763.81
2022-10-13T02:49:30.168Z,101759.47
2022-10-13T02:51:56.667Z,101752.09
2022-10-13T02:54:23.119Z,101751.28
2022-10-13T02:56:49.785Z,101749.63
2022-10-13T02:59:16.429Z,101746.09
2022-10-13T03:01:44.530Z,101755.91
2022-10-13T03:04:11.550Z,101753.19
2022-10-13T03:06:38.364Z,101756.97
2022-10-13T03:09:04.999Z,101746.91
2022-10-13T03:11:31.548Z,101745.28
2022-10-13T03:13:57.993Z,101734.38
2022-10-13T03:16:24.576Z,101743.63
2022-10-13T03:18:51.227Z,101727.03
2022-10-13T03:21:17.678Z,101727.03
2022-10-13T03:23:44.186Z,101702.78
2022-10-13T03:26:10.647Z,101696.25
2022-10-13T03:28:37.122Z,101693.78
2022-10-13T03:31:08.686Z,101708.50
2022-10-13T03:33:35.431Z,101724.00
2022-10-13T03:36:04.832Z,101738.47
2022-10-13T03:38:33.786Z,101744.72
2022-10-13T03:41:08.273Z,101730.28
2022-10-13T03:43:34.886Z,101727.56
2022-10-13T03:46:03.239Z,101726.72
2022-10-13T03:48:30.736Z,101719.66
2022-10-13T03:50:58.083Z,101721.28
2022-10-13T03:53:25.602Z,101702.47
2022-10-13T03:55:54.611Z,101705.22
2022-10-13T03:58:22.481Z,101713.38
2022-10-13T04:00:49.564Z,101705.22
2022-10-13T04:03:16.772Z,101719.91
2022-10-13T04:05:43.527Z,101728.09
2022-10-13T04:08:10.320Z,101734.34
2022-10-13T04:10:36.803Z,101740.91
2022-10-13T04:13:03.308Z,101733.53
2022-10-13T04:15:30.078Z,101731.88
2022-10-13T04:17:56.675Z,101721.81
2022-10-13T04:20:23.258Z,101715.53
2022-10-13T04:22:49.702Z,101721.81
2022-10-13T04:25:16.161Z,101719.34
2022-10-13T04:27:42.695Z,101715.00
2022-10-13T04:30:13.327Z,101713.91
2022-10-13T04:32:40.392Z,101707.38
2022-10-13T04:35:07.031Z,101704.41
2022-10-13T04:37:33.512Z,101702.47
2022-10-13T04:40:00.025Z,101703.88
2022-10-13T04:42:26.492Z,101704.69
2022-10-13T04:44:52.930Z,101710.69
2022-10-13T04:47:19.432Z,101712.34
2022-10-13T04:49:45.898Z,101713.97
2022-10-13T04:52:12.429Z,101712.06
2022-10-13T04:54:39.036Z,101713.69
2022-10-13T04:57:05.551Z,101720.81
2022-10-13T04:59:31.995Z,101721.88
2022-10-13T05:01:58.529Z,101710.72
2022-10-13T05:04:25.058Z,101711.53
2022-10-13T05:07:16.449Z,101709.63
2022-10-13T05:09:38.232Z,101714.25
2022-10-13T05:12:04.969Z,101708.00
2022-10-13T05:14:32.159Z,101708.81
2022-10-13T05:16:58.681Z,101699.56
2022-10-13T05:19:25.212Z,101697.91
2022-10-13T05:21:51.658Z,101694.09
2022-10-13T05:24:20.643Z,101684.84
2022-10-13T05:26:47.072Z,101684.31
2022-10-13T05:29:13.618Z,101691.38
2022-10-13T05:31:40.224Z,101702.56
2022-10-13T05:34:07.198Z,101696.00
2022-10-13T05:36:35.035Z,101666.03
2022-10-13T05:39:04.715Z,101657.06
2022-10-13T05:41:31.573Z,101647.25
2022-10-13T05:44:03.425Z,101652.72
2022-10-13T05:46:29.920Z,101663.31
2022-10-13T05:48:56.626Z,101667.69
2022-10-13T05:51:27.064Z,101675.03
2022-10-13T05:53:57.869Z,101668.78
2022-10-13T05:56:29.952Z,101678.56
2022-10-13T05:59:01.576Z,101675.84
2022-10-13T06:01:32.926Z,101673.94
2022-10-13T06:04:04.307Z,101679.38
2022-10-13T06:06:31.688Z,101682.97
2022-10-13T06:08:59.948Z,101690.28
2022-10-13T06:11:26.443Z,101686.75
2022-10-13T06:13:52.937Z,101688.66
2022-10-13T06:16:19.404Z,101677.25
2022-10-13T06:18:46.688Z,101679.97
2022-10-13T06:21:13.862Z,101683.50
2022-10-13T06:23:40.498Z,101687.03
2022-10-13T06:26:08.819Z,101678.88
2022-10-13T06:28:36.194Z,101679.97
2022-10-13T06:31:05.619Z,101676.16
2022-10-13T06:33:32.636Z,101673.41
2022-10-13T06:36:05.922Z,101676.97
2022-10-13T06:38:33.324Z,101676.41
2022-10-13T06:41:01.880Z,101680.78
2022-10-13T06:43:35.756Z,101683.50
2022-10-13T06:46:06.614Z,101679.69
2022-10-13T06:48:33.077Z,101672.59
2022-10-13T06:51:10.896Z,101677.25
2022-10-13T06:53:38.014Z,101687.03
2022-10-13T06:56:06.289Z,101686.22
2022-10-13T06:58:33.816Z,101681.06
2022-10-13T07:01:00.371Z,101678.88
2022-10-13T07:03:27.008Z,101671.78
2022-10-13T07:05:53.682Z,101666.34
2022-10-13T07:08:20.686Z,101670.69
2022-10-13T07:10:47.230Z,101664.44
2022-10-13T07:13:13.715Z,101670.69
2022-10-13T07:15:40.810Z,101674.22
2022-10-13T07:18:07.522Z,101676.16
2022-10-13T07:20:34.370Z,101669.59
2022-10-13T07:23:00.876Z,101671.25
2022-10-13T07:25:27.473Z,101677.53
2022-10-13T07:27:53.931Z,101670.44
2022-10-13T07:30:20.500Z,101666.63
2022-10-13T07:32:47.933Z,101665.81
2022-10-13T07:35:14.669Z,101665.53
2022-10-13T07:37:41.220Z,101679.16
2022-10-13T07:40:08.487Z,101680.78
2022-10-13T07:42:35.410Z,101681.88
2022-10-13T07:45:02.042Z,101668.00
2022-10-13T07:47:29.218Z,101667.16
2022-10-13T07:49:55.920Z,101671.81
2022-10-13T07:52:23.016Z,101671.00
2022-10-13T07:54:50.866Z,101676.72
2022-10-13T07:57:17.956Z,101684.38
2022-10-13T07:59:44.464Z,101678.63
2022-10-13T08:02:11.104Z,101675.09
2022-10-13T08:04:37.864Z,101674.28
2022-10-13T08:07:05.760Z,101680.53
2022-10-13T08:09:33.147Z,101675.09
2022-10-13T08:12:00.783Z,101673.19
2022-10-13T08:14:29.198Z,101664.19
2022-10-13T08:16:56.195Z,101663.38
2022-10-13T08:19:23.121Z,101666.91
2022-10-13T08:21:58.222Z,101664.44
2022-10-13T08:24:26.192Z,101642.41
2022-10-13T08:26:52.844Z,101659.84
2022-10-13T08:29:22.535Z,101657.13
2022-10-13T08:31:50.494Z,101662.56
2022-10-13T08:34:17.036Z,101671.56
2022-10-13T08:36:43.834Z,101677.81
2022-10-13T08:39:10.735Z,101671.28
2022-10-13T08:41:40.867Z,101668.56
2022-10-13T08:50:25.518Z,101667.75
2022-10-13T08:53:00.560Z,101668.00
2022-10-13T08:55:43.084Z,101658.75
2022-10-13T08:58:25.652Z,101672.09
2022-10-13T09:01:23.885Z,101659.28
2022-10-13T09:03:50.361Z,101660.09
2022-10-13T09:06:28.949Z,101649.47
2022-10-13T09:09:00.572Z,101642.94
2022-10-13T09:11:28.728Z,101641.03
2022-10-13T09:13:57.823Z,101649.19
2022-10-13T09:16:35.356Z,101644.59
2022-10-13T09:19:22.350Z,101662.56
2022-10-13T09:21:51.076Z,101644.59
2022-10-13T09:24:20.467Z,101645.13
2022-10-13T09:26:49.886Z,101642.41
2022-10-13T09:29:25.581Z,101647.31
2022-10-13T09:32:07.097Z,101639.16
2022-10-13T09:34:34.406Z,101639.16
2022-10-13T09:37:03.471Z,101645.41
2022-10-13T09:39:31.643Z,101641.59
2022-10-13T09:42:25.997Z,101635.34
2022-10-13T09:44:58.543Z,101635.06
2022-10-13T09:47:27.294Z,101638.59
2022-10-13T09:50:20.065Z,101629.38
2022-10-13T09:52:47.795Z,101634.84
2022-10-13T09:55:33.024Z,101630.19
2022-10-13T09:58:25.563Z,101630.19
2022-10-13T10:00:53.005Z,101634.00
2022-10-13T10:03:23.903Z,101623.94
2022-10-13T10:05:54.751Z,101618.47
2022-10-13T10:08:58.150Z,101617.97
2022-10-13T10:11:40.653Z,101613.84
2022-10-13T10:14:19.514Z,101613.84
2022-10-13T10:20:01.771Z,101609.78
2022-10-13T10:22:40.131Z,101602.44
2022-10-13T10:25:36.237Z,101602.44
2022-10-13T10:28:15.085Z,101602.16
2022-10-13T10:30:48.659Z,101605.97
2022-10-13T10:33:21.851Z,101607.59
2022-10-13T10:36:06.964Z,101599.41
2022-10-13T10:38:43.137Z,101596.69
2022-10-13T10:44:30.751Z,101597.53
2022-10-13T10:47:02.979Z,101596.44
2022-10-13T10:49:35.163Z,101601.09
2022-10-13T10:52:06.946Z,101597.53
2022-10-13T10:54:55.571Z,101601.34
2022-10-13T10:57:35.207Z,101596.69
2022-10-13T11:00:18.653Z,101601.59
2022-10-13T11:02:48.185Z,101590.44
2022-10-13T11:05:16.840Z,101588.81
2022-10-13T11:07:55.550Z,101591.53
2022-10-13T11:10:22.472Z,101586.06
2022-10-13T11:13:27.381Z,101588.81
2022-10-13T11:15:54.409Z,101579.81
2022-10-13T11:19:05.645Z,101578.19
2022-10-13T11:21:58.299Z,101566.44
2022-10-13T11:27:32.584Z,101567.28
2022-10-13T11:30:00.848Z,101550.94
2022-10-13T11:32:41.878Z,101559.09
2022-10-13T11:35:08.366Z,101564.28
2022-10-13T11:38:18.029Z,101561.53
2022-10-13T11:41:12.508Z,101555.28
2022-10-13T11:43:50.746Z,101554.19
2022-10-13T11:46:39.187Z,101549.84
2022-10-13T11:49:20.775Z,101552.81
2022-10-13T11:52:08.876Z,101542.75
2022-10-13T11:54:47.481Z,101545.47
2022-10-13T11:57:27.662Z,101541.09
2022-10-13T11:59:56.863Z,101535.66
2022-10-13T12:02:26.588Z,101539.19
2022-10-13T12:05:05.952Z,101536.75
2022-10-13T12:07:39.387Z,101537.56
2022-10-13T12:10:14.983Z,101540.56
2022-10-13T12:12:47.712Z,101544.09
2022-10-13T12:15:35.479Z,101533.19
2022-10-13T12:18:02.952Z,101532.38
2022-10-13T12:20:31.997Z,101526.66
2022-10-13T12:22:58.656Z,101533.47
2022-10-13T12:25:28.872Z,101521.75
2022-10-13T12:27:58.808Z,101518.75
2022-10-13T12:30:29.731Z,101519.84
2022-10-13T12:32:59.352Z,101520.09
2022-10-13T12:35:31.734Z,101520.91
2022-10-13T12:38:02.170Z,101517.38
2022-10-13T12:40:29.169Z,101515.75
2022-10-13T12:42:56.027Z,101524.75
2022-10-13T12:45:26.667Z,101516.56
2022-10-13T12:47:54.772Z,101505.66
2022-10-13T12:50:30.317Z,101511.13
2022-10-13T12:53:13.792Z,101509.22
2022-10-13T12:55:48.349Z,101516.81
2022-10-13T12:58:20.610Z,101511.38
2022-10-13T13:00:56.128Z,101514.94
2022-10-13T13:03:28.005Z,101513.25
2022-10-13T13:06:15.970Z,101512.44
2022-10-13T13:08:43.435Z,101507.00
2022-10-13T13:11:33.235Z,101511.63
2022-10-13T13:14:21.899Z,101512.44
2022-10-13T13:17:03.773Z,101509.19
2022-10-13T13:19:35.331Z,101510.81
2022-10-13T13:22:03.915Z,101508.91
2022-10-13T13:24:39.787Z,101511.63
2022-10-13T13:27:27.215Z,101517.34
2022-10-13T13:29:55.701Z,101517.06
2022-10-13T13:32:23.776Z,101522.03
2022-10-13T13:34:50.570Z,101510.31
2022-10-13T13:37:22.496Z,101520.91
2022-10-13T13:39:49.078Z,101520.09
2022-10-13T13:42:15.662Z,101528.28
2022-10-13T13:44:42.223Z,101531.00
2022-10-13T13:47:23.896Z,101526.66
2022-10-13T13:49:53.684Z,101535.66
2022-10-13T13:52:21.790Z,101524.16
2022-10-13T13:54:50.609Z,101532.31
2022-10-13T13:57:18.767Z,101528.78
2022-10-13T13:59:45.924Z,101528.78
2022-10-13T14:02:18.019Z,101525.25
2022-10-13T14:04:44.848Z,101530.97
2022-10-13T14:07:11.934Z,101519.78
2022-10-13T14:09:38.477Z,101529.88
2022-10-13T14:12:05.459Z,101521.72
2022-10-13T14:14:32.980Z,101525.53
2022-10-13T14:17:00.460Z,101528.25
2022-10-13T14:19:27.143Z,101524.44
2022-10-13T14:21:53.697Z,101524.72
2022-10-13T14:24:20.593Z,101524.72
2022-10-13T14:26:47.140Z,101540.22
2022-10-13T14:29:13.794Z,101533.94
2022-10-13T14:31:40.500Z,101527.44
2022-10-13T14:34:07.134Z,101538.34
2022-10-13T14:36:34.166Z,101525.25
2022-10-13T14:39:01.019Z,101539.69
2022-10-13T14:41:27.958Z,101522.84
2022-10-13T14:43:55.531Z,101523.41
2022-10-13T14:46:23.348Z,101524.22
2022-10-13T14:48:50.351Z,101523.94
2022-10-13T14:51:17.377Z,101522.03
2022-10-13T14:53:45.390Z,101515.22
2022-10-13T14:56:21.400Z,101516.31
2022-10-13T14:58:49.866Z,101511.41
2022-10-13T15:01:17.428Z,101521.47
2022-10-13T15:03:44.965Z,101514.94
2022-10-13T15:06:16.799Z,101519.56
2022-10-13T15:08:44.758Z,101526.94
2022-10-13T15:11:11.947Z,101522.56
2022-10-13T15:13:39.089Z,101519.03
2022-10-13T15:16:06.432Z,101515.50
2022-10-13T15:18:34.907Z,101525.56
2022-10-13T15:21:02.014Z,101518.75
2022-10-13T15:23:28.754Z,101526.94
2022-10-13T15:26:00.930Z,101517.13
2022-10-13T15:28:30.521Z,101512.50
2022-10-13T15:30:57.046Z,101525.84
2022-10-13T15:33:23.717Z,101519.56
2022-10-13T15:35:51.508Z,101517.66
2022-10-13T15:38:19.104Z,101523.09
2022-10-13T15:40:46.217Z,101524.22
2022-10-13T15:43:12.781Z,101515.22
2022-10-13T15:45:39.478Z,101517.94
2022-10-13T15:48:07.748Z,101512.78
2022-10-13T15:50:38.504Z,101515.50
2022-10-13T15:53:05.005Z,101516.56
2022-10-13T15:55:32.304Z,101520.94
2022-10-13T15:57:58.895Z,101527.22
2022-10-13T16:00:25.556Z,101521.75
2022-10-13T16:02:52.210Z,101525.31
2022-10-13T16:05:19.551Z,101520.09
2022-10-13T16:07:46.133Z,101517.38
2022-10-13T16:10:14.145Z,101523.69
2022-10-13T16:12:45.491Z,101520.94
2022-10-13T16:15:14.979Z,101521.19
2022-10-13T16:17:41.799Z,101512.22
2022-10-13T16:20:09.249Z,101513.31
2022-10-13T16:22:35.828Z,101514.66
2022-10-13T16:25:02.343Z,101510.31
2022-10-13T16:27:28.904Z,101516.84
2022-10-13T16:29:55.487Z,101517.66
2022-10-13T16:32:22.568Z,101529.38
2022-10-13T16:34:49.274Z,101529.66
2022-10-13T16:37:15.764Z,101534.00
2022-10-13T16:39:44.571Z,101530.75
2022-10-13T16:42:13.116Z,101532.38
2022-10-13T16:44:39.931Z,101534.28
2022-10-13T16:47:06.539Z,101546.25
2022-10-13T16:49:33.813Z,101544.38
2022-10-13T16:52:00.484Z,101547.91
2022-10-13T16:54:26.994Z,101556.34
2022-10-13T16:56:53.432Z,101559.88
2022-10-13T16:59:20.027Z,101550.91
2022-10-13T17:01:47.246Z,101559.06
2022-10-13T17:04:16.252Z,101546.53
2022-10-13T17:06:44.949Z,101559.34
2022-10-13T17:09:11.520Z,101565.88
2022-10-13T17:11:38.051Z,101549.50
2022-10-13T17:14:05.723Z,101552.25
2022-10-13T17:16:32.966Z,101565.88
2022-10-13T17:18:59.463Z,101573.19
2022-10-13T17:21:25.924Z,101579.75
2022-10-13T17:23:55.061Z,101574.28
2022-10-13T17:26:21.767Z,101579.75
2022-10-13T17:28:48.648Z,101577.00
2022-10-13T17:31:18.833Z,101583.28
2022-10-13T17:33:46.490Z,101581.66
2022-10-13T17:36:15.870Z,101582.47
2022-10-13T17:38:43.255Z,101579.75
2022-10-13T17:41:11.289Z,101574.28
2022-10-13T17:43:39.118Z,101571.03
2022-10-13T17:46:35.177Z,101576.72
2022-10-13T17:49:00.001Z,101583.00
2022-10-13T17:51:28.061Z,101583.81
2022-10-13T17:53:54.810Z,101583.81
2022-10-13T17:56:23.589Z,101596.63
2022-10-13T17:58:51.201Z,101588.44
2022-10-13T18:01:26.939Z,101593.06
2022-10-13T18:03:58.633Z,101594.19
2022-10-13T18:06:25.510Z,101594.19
2022-10-13T18:08:52.212Z,101596.91
2022-10-13T18:11:21.371Z,101600.44
2022-10-13T18:13:48.731Z,101592.53
2022-10-13T18:16:21.339Z,101596.09
2022-10-13T18:18:50.039Z,101609.94
2022-10-13T18:21:19.675Z,101604.50
2022-10-13T18:23:46.598Z,101602.63
2022-10-13T18:26:15.583Z,101601.78
2022-10-13T18:28:45.711Z,101607.50
2022-10-13T18:31:15.125Z,101596.63
2022-10-13T18:33:42.150Z,101603.16
2022-10-13T18:36:12.975Z,101603.16
2022-10-13T18:38:39.451Z,101591.16
2022-10-13T18:41:06.528Z,101583.28
2022-10-13T18:43:33.234Z,101587.06
2022-10-13T18:46:03.313Z,101586.00
2022-10-13T18:48:30.009Z,101589.78
2022-10-13T18:50:56.687Z,101584.34
2022-10-13T18:53:23.437Z,101585.44
2022-10-13T18:55:49.959Z,101590.88
2022-10-13T18:58:16.501Z,101591.97
2022-10-13T19:00:43.040Z,101591.16
2022-10-13T19:03:13.116Z,101597.41
2022-10-13T19:05:39.785Z,101596.59
2022-10-13T19:08:09.424Z,101596.59
2022-10-13T19:10:36.921Z,101599.31
2022-10-13T19:13:03.680Z,101599.31
2022-10-13T19:15:30.387Z,101597.66
2022-10-13T19:17:56.888Z,101605.84
2022-10-13T19:20:23.409Z,101602.31
2022-10-13T19:22:49.946Z,101596.03
2022-10-13T19:25:16.563Z,101598.75
2022-10-13T19:27:43.131Z,101599.84
2022-10-13T19:30:10.348Z,101604.50
2022-10-13T19:32:39.560Z,101604.50
2022-10-13T19:35:06.233Z,101603.66
2022-10-13T19:37:32.722Z,101610.19
2022-10-13T19:39:59.267Z,101605.81
2022-10-13T19:42:25.773Z,101616.44
2022-10-13T19:44:52.226Z,101604.75
2022-10-13T19:47:19.156Z,101605.81
2022-10-13T19:49:46.777Z,101616.72
2022-10-13T19:52:13.385Z,101611.28
2022-10-13T19:54:39.871Z,101618.63
2022-10-13T19:57:06.443Z,101617.25
2022-10-13T19:59:32.953Z,101615.09
2022-10-13T20:01:59.536Z,101615.34
2022-10-13T20:04:26.107Z,101613.44
2022-10-13T20:06:52.598Z,101626.25
2022-10-13T20:09:19.186Z,101628.16
2022-10-13T20:11:47.959Z,101630.06
2022-10-13T20:14:14.926Z,101631.16
2022-10-13T20:16:41.527Z,101616.44
2022-10-13T20:19:09.791Z,101630.88
2022-10-13T20:21:36.286Z,101612.63
2022-10-13T20:24:02.828Z,101626.25
2022-10-13T20:26:29.377Z,101616.44
2022-10-13T20:28:56.201Z,101618.34
2022-10-13T20:31:23.196Z,101623.78
2022-10-13T20:33:54.846Z,101625.94
2022-10-13T20:36:21.948Z,101624.31
2022-10-13T20:38:49.239Z,101623.50
2022-10-13T20:41:19.530Z,101625.41
2022-10-13T20:43:47.354Z,101626.22
2022-10-13T20:46:16.209Z,101630.84
2022-10-13T20:51:30.400Z,101621.06
2022-10-13T20:53:57.552Z,101631.09
2022-10-13T20:56:25.908Z,101627.56
2022-10-13T20:58:52.965Z,101624.84
2022-10-13T21:01:21.178Z,101621.31
2022-10-13T21:03:52.220Z,101625.13
2022-10-13T21:06:18.767Z,101618.84
2022-10-13T21:08:46.592Z,101614.22
2022-10-13T21:11:15.564Z,101612.59
2022-10-13T21:13:43.538Z,101601.69
2022-10-13T21:16:16.067Z,101600.84
2022-10-13T21:18:50.416Z,101610.94
2022-10-13T21:21:20.334Z,101594.59
2022-10-13T21:23:50.724Z,101594.06
2022-10-13T21:26:21.591Z,101602.22
2022-10-13T21:28:49.064Z,101597.59
2022-10-13T21:31:17.606Z,101602.22
2022-10-13T21:33:44.533Z,101592.44
2022-10-13T21:36:14.174Z,101601.66
2022-10-13T21:38:42.209Z,101596.22
2022-10-13T21:41:10.656Z,101589.94
2022-10-13T21:43:37.161Z,101578.25
2022-10-13T21:46:13.795Z,101583.69
2022-10-13T21:48:40.343Z,101580.16
2022-10-13T21:51:11.942Z,101582.88
2022-10-13T21:53:38.442Z,101580.41
2022-10-13T21:56:09.186Z,101578.53
2022-10-13T21:58:35.996Z,101579.59
2022-10-13T22:01:03.474Z,101572.22
2022-10-13T22:03:30.095Z,101573.88
2022-10-13T22:05:56.672Z,101568.69
2022-10-13T22:08:37.637Z,101569.78
2022-10-13T22:11:05.822Z,101561.88
2022-10-13T22:13:32.940Z,101561.63
2022-10-13T22:16:04.516Z,101564.34
2022-10-13T22:18:31.025Z,101562.72
2022-10-13T22:21:06.884Z,101561.03
2022-10-13T22:23:33.909Z,101563.78
2022-10-13T22:26:00.698Z,101561.88
2022-10-13T22:28:27.276Z,101552.88
2022-10-13T22:30:53.830Z,101558.31
2022-10-13T22:33:20.327Z,101546.91
2022-10-13T22:35:47.080Z,101542.53
2022-10-13T22:38:14.482Z,101547.72
2022-10-13T22:40:41.836Z,101547.72
2022-10-13T22:43:08.632Z,101539.81
2022-10-13T22:45:35.133Z,101546.09
2022-10-13T22:48:02.201Z,101534.38
2022-10-13T22:50:29.127Z,101538.16
2022-10-13T22:52:55.624Z,101537.09
2022-10-13T22:55:22.282Z,101540.06
2022-10-13T22:57:48.812Z,101532.72
2022-10-13T23:00:15.992Z,101525.63
2022-10-13T23:02:42.449Z,101531.91
2022-10-13T23:05:14.476Z,101530.84
2022-10-13T23:07:40.967Z,101524.00
2022-10-13T23:10:07.929Z,101532.19
2022-10-13T23:12:34.502Z,101528.38
2022-10-13T23:15:01.037Z,101540.34
2022-10-13T23:17:27.533Z,101540.34
2022-10-13T23:19:54.111Z,101536.00
2022-10-13T23:22:20.651Z,101533.28
2022-10-13T23:24:47.304Z,101538.72
2022-10-13T23:27:13.776Z,101532.44
2022-10-13T23:29:40.243Z,101531.38
2022-10-13T23:32:09.828Z,101535.16
2022-10-13T23:34:36.650Z,101534.34
2022-10-13T23:37:03.284Z,101529.69
2022-10-13T23:39:29.870Z,101523.44
2022-10-13T23:41:56.556Z,101519.09
2022-10-13T23:44:23.141Z,101512.00
2022-10-13T23:46:49.649Z,101509.28
2022-10-13T23:49:16.287Z,101508.47
2022-10-13T23:51:44.124Z,101508.47
2022-10-13T23:54:11.371Z,101513.09
2022-10-13T23:56:38.607Z,101504.09
2022-10-13T23:59:05.795Z,101506.81
